sensor_id;sensor_type;location;lat;lon;timestamp;pressure;altitude;pressure_sealevel;temperature;humidity
7660;BME280;3872;47.902;8.162;2023-02-28T00:00:26;91992.66;;;-3.04;100.00
7660;BME280;3872;47.902;8.162;2023-02-28T00:02:53;92001.31;;;-2.92;100.00
7660;BME280;3872;47.902;8.162;2023-02-28T00:05:21;92003.59;;;-2.84;100.00
7660;BME280;3872;47.902;8.162;2023-02-28T00:07:49;91995.88;;;-2.84;100.00
7660;BME280;3872;47.902;8.162;2023-02-28T00:10:18;92006.22;;;-2.90;100.00
7660;BME280;3872;47.902;8.162;2023-02-28T00:12:46;91998.94;;;-2.93;100.00
7660;BME280;3872;47.902;8.162;2023-02-28T00:15:13;92009.00;;;-3.17;100.00
7660;BME280;3872;47.902;8.162;2023-02-28T00:17:39;91994.44;;;-3.04;100.00
7660;BME280;3872;47.902;8.162;2023-02-28T00:20:07;91993.16;;;-3.13;100.00
7660;BME280;3872;47.902;8.162;2023-02-28T00:22:37;91994.81;;;-2.76;100.00
7660;BME280;3872;47.902;8.162;2023-02-28T00:25:05;91991.41;;;-2.95;100.00
7660;BME280;3872;47.902;8.162;2023-02-28T00:27:34;91985.56;;;-2.84;100.00
7660;BME280;3872;47.902;8.162;2023-02-28T00:30:05;91994.25;;;-2.53;100.00
7660;BME280;3872;47.902;8.162;2023-02-28T00:32:33;91985.34;;;-2.14;100.00
7660;BME280;3872;47.902;8.162;2023-02-28T00:35:01;91994.53;;;-2.00;100.00
7660;BME280;3872;47.902;8.162;2023-02-28T00:37:27;91996.47;;;-2.82;100.00
7660;BME280;3872;47.902;8.162;2023-02-28T00:39:55;91989.22;;;-2.23;100.00
7660;BME280;3872;47.902;8.162;2023-02-28T00:42:22;91991.56;;;-2.22;100.00
7660;BME280;3872;47.902;8.162;2023-02-28T00:44:49;91996.00;;;-2.72;100.00
7660;BME280;3872;47.902;8.162;2023-02-28T00:47:16;91992.72;;;-2.61;100.00
7660;BME280;3872;47.902;8.162;2023-02-28T00:49:42;91999.66;;;-2.37;100.00
7660;BME280;3872;47.902;8.162;2023-02-28T00:52:09;92002.25;;;-2.61;100.00
7660;BME280;3872;47.902;8.162;2023-02-28T00:54:36;91995.97;;;-2.47;100.00
7660;BME280;3872;47.902;8.162;2023-02-28T00:57:02;91994.25;;;-2.53;100.00
7660;BME280;3872;47.902;8.162;2023-02-28T00:59:32;91999.34;;;-2.96;100.00
7660;BME280;3872;47.902;8.162;2023-02-28T01:01:59;91986.31;;;-2.52;100.00
7660;BME280;3872;47.902;8.162;2023-02-28T01:04:26;91989.53;;;-2.56;100.00
7660;BME280;3872;47.902;8.162;2023-02-28T01:06:52;91985.31;;;-2.32;100.00
7660;BME280;3872;47.902;8.162;2023-02-28T01:09:19;91990.69;;;-2.34;100.00
7660;BME280;3872;47.902;8.162;2023-02-28T01:11:46;91993.84;;;-2.75;100.00
7660;BME280;3872;47.902;8.162;2023-02-28T01:14:13;91995.38;;;-2.92;100.00
7660;BME280;3872;47.902;8.162;2023-02-28T01:16:40;91989.25;;;-2.98;100.00
7660;BME280;3872;47.902;8.162;2023-02-28T01:19:08;91993.44;;;-2.72;100.00
7660;BME280;3872;47.902;8.162;2023-02-28T01:21:37;91994.16;;;-2.65;100.00
7660;BME280;3872;47.902;8.162;2023-02-28T01:24:05;91995.56;;;-2.69;100.00
7660;BME280;3872;47.902;8.162;2023-02-28T01:26:32;92002.19;;;-2.80;100.00
7660;BME280;3872;47.902;8.162;2023-02-28T01:28:58;91986.22;;;-2.88;100.00
7660;BME280;3872;47.902;8.162;2023-02-28T01:31:25;91993.25;;;-3.02;100.00
7660;BME280;3872;47.902;8.162;2023-02-28T01:33:52;91996.13;;;-3.17;100.00
7660;BME280;3872;47.902;8.162;2023-02-28T01:36:21;91998.44;;;-2.84;100.00
7660;BME280;3872;47.902;8.162;2023-02-28T01:38:49;92000.81;;;-2.82;100.00
7660;BME280;3872;47.902;8.162;2023-02-28T01:41:17;91995.28;;;-3.10;100.00
7660;BME280;3872;47.902;8.162;2023-02-28T01:44:03;91994.53;;;-3.18;100.00
7660;BME280;3872;47.902;8.162;2023-02-28T01:46:30;91988.59;;;-3.18;100.00
7660;BME280;3872;47.902;8.162;2023-02-28T01:49:02;91994.94;;;-2.89;100.00
7660;BME280;3872;47.902;8.162;2023-02-28T01:51:35;91989.78;;;-3.14;100.00
7660;BME280;3872;47.902;8.162;2023-02-28T01:54:05;91989.38;;;-2.86;100.00
7660;BME280;3872;47.902;8.162;2023-02-28T01:56:43;91993.53;;;-2.85;100.00
7660;BME280;3872;47.902;8.162;2023-02-28T01:59:12;91990.22;;;-3.55;100.00
7660;BME280;3872;47.902;8.162;2023-02-28T02:01:40;91977.47;;;-3.37;100.00
7660;BME280;3872;47.902;8.162;2023-02-28T02:04:07;91976.22;;;-3.03;100.00
7660;BME280;3872;47.902;8.162;2023-02-28T02:06:38;91980.53;;;-3.22;100.00
7660;BME280;3872;47.902;8.162;2023-02-28T02:09:09;91978.94;;;-2.98;100.00
7660;BME280;3872;47.902;8.162;2023-02-28T02:11:36;91982.13;;;-2.96;100.00
7660;BME280;3872;47.902;8.162;2023-02-28T02:14:39;91979.22;;;-2.81;100.00
7660;BME280;3872;47.902;8.162;2023-02-28T02:17:25;91978.69;;;-3.14;100.00
7660;BME280;3872;47.902;8.162;2023-02-28T02:20:18;91979.59;;;-2.78;100.00
7660;BME280;3872;47.902;8.162;2023-02-28T02:23:09;91964.97;;;-2.59;100.00
7660;BME280;3872;47.902;8.162;2023-02-28T02:25:51;91976.44;;;-2.80;100.00
7660;BME280;3872;47.902;8.162;2023-02-28T02:28:56;91967.97;;;-2.62;100.00
7660;BME280;3872;47.902;8.162;2023-02-28T02:31:46;91966.63;;;-2.89;100.00
7660;BME280;3872;47.902;8.162;2023-02-28T02:34:31;91958.34;;;-2.98;100.00
7660;BME280;3872;47.902;8.162;2023-02-28T02:37:10;91959.63;;;-3.07;100.00
7660;BME280;3872;47.902;8.162;2023-02-28T02:39:45;91951.72;;;-3.12;100.00
7660;BME280;3872;47.902;8.162;2023-02-28T02:42:17;91960.84;;;-3.09;100.00
7660;BME280;3872;47.902;8.162;2023-02-28T02:44:50;91960.97;;;-3.04;100.00
7660;BME280;3872;47.902;8.162;2023-02-28T02:47:22;91952.94;;;-2.90;100.00
7660;BME280;3872;47.902;8.162;2023-02-28T02:49:53;91947.88;;;-2.53;100.00
7660;BME280;3872;47.902;8.162;2023-02-28T02:52:27;91953.00;;;-3.21;100.00
7660;BME280;3872;47.902;8.162;2023-02-28T02:54:57;91948.66;;;-2.96;100.00
7660;BME280;3872;47.902;8.162;2023-02-28T02:57:29;91944.84;;;-2.68;100.00
7660;BME280;3872;47.902;8.162;2023-02-28T02:59:57;91945.09;;;-2.77;100.00
7660;BME280;3872;47.902;8.162;2023-02-28T03:02:27;91950.19;;;-3.13;100.00
7660;BME280;3872;47.902;8.162;2023-02-28T03:05:02;91952.91;;;-3.08;100.00
7660;BME280;3872;47.902;8.162;2023-02-28T03:07:30;91943.03;;;-2.86;100.00
7660;BME280;3872;47.902;8.162;2023-02-28T03:09:57;91958.69;;;-2.88;100.00
7660;BME280;3872;47.902;8.162;2023-02-28T03:12:33;91961.91;;;-2.92;100.00
7660;BME280;3872;47.902;8.162;2023-02-28T03:15:12;91951.88;;;-2.57;100.00
7660;BME280;3872;47.902;8.162;2023-02-28T03:17:58;91946.13;;;-2.78;100.00
7660;BME280;3872;47.902;8.162;2023-02-28T03:20:36;91955.38;;;-2.95;100.00
7660;BME280;3872;47.902;8.162;2023-02-28T03:23:13;91951.22;;;-2.96;100.00
7660;BME280;3872;47.902;8.162;2023-02-28T03:25:54;91952.16;;;-3.15;100.00
7660;BME280;3872;47.902;8.162;2023-02-28T03:28:30;91953.56;;;-3.19;100.00
7660;BME280;3872;47.902;8.162;2023-02-28T03:31:01;91954.13;;;-2.86;100.00
7660;BME280;3872;47.902;8.162;2023-02-28T03:33:32;91943.91;;;-2.74;100.00
7660;BME280;3872;47.902;8.162;2023-02-28T03:36:04;91950.34;;;-3.08;100.00
7660;BME280;3872;47.902;8.162;2023-02-28T03:38:35;91950.00;;;-3.18;100.00
7660;BME280;3872;47.902;8.162;2023-02-28T03:41:09;91948.06;;;-2.98;100.00
7660;BME280;3872;47.902;8.162;2023-02-28T03:43:43;91956.97;;;-3.50;100.00
7660;BME280;3872;47.902;8.162;2023-02-28T03:46:14;91957.25;;;-3.08;100.00
7660;BME280;3872;47.902;8.162;2023-02-28T03:48:45;91950.53;;;-3.09;100.00
7660;BME280;3872;47.902;8.162;2023-02-28T03:51:17;91956.72;;;-2.67;100.00
7660;BME280;3872;47.902;8.162;2023-02-28T03:53:49;91957.56;;;-2.73;100.00
7660;BME280;3872;47.902;8.162;2023-02-28T03:56:19;91956.00;;;-2.99;100.00
7660;BME280;3872;47.902;8.162;2023-02-28T03:58:51;91949.06;;;-3.24;100.00
7660;BME280;3872;47.902;8.162;2023-02-28T04:01:23;91944.91;;;-2.75;100.00
7660;BME280;3872;47.902;8.162;2023-02-28T04:03:50;91949.91;;;-2.80;100.00
7660;BME280;3872;47.902;8.162;2023-02-28T04:06:20;91949.03;;;-2.92;100.00
7660;BME280;3872;47.902;8.162;2023-02-28T04:08:47;91954.84;;;-3.03;100.00
7660;BME280;3872;47.902;8.162;2023-02-28T04:11:21;91956.97;;;-3.25;100.00
7660;BME280;3872;47.902;8.162;2023-02-28T04:13:48;91954.94;;;-3.17;100.00
7660;BME280;3872;47.902;8.162;2023-02-28T04:16:15;91953.25;;;-3.29;100.00
7660;BME280;3872;47.902;8.162;2023-02-28T04:18:42;91958.09;;;-2.65;100.00
7660;BME280;3872;47.902;8.162;2023-02-28T04:21:09;91957.00;;;-3.00;100.00
7660;BME280;3872;47.902;8.162;2023-02-28T04:23:38;91950.25;;;-2.77;100.00
7660;BME280;3872;47.902;8.162;2023-02-28T04:26:04;91957.56;;;-3.23;100.00
7660;BME280;3872;47.902;8.162;2023-02-28T04:28:31;91959.59;;;-3.00;100.00
7660;BME280;3872;47.902;8.162;2023-02-28T04:31:00;91958.88;;;-2.89;100.00
7660;BME280;3872;47.902;8.162;2023-02-28T04:33:28;91945.22;;;-2.90;100.00
7660;BME280;3872;47.902;8.162;2023-02-28T04:35:59;91950.56;;;-2.91;100.00
7660;BME280;3872;47.902;8.162;2023-02-28T04:38:25;91950.78;;;-3.42;100.00
7660;BME280;3872;47.902;8.162;2023-02-28T04:40:53;91951.72;;;-3.12;100.00
7660;BME280;3872;47.902;8.162;2023-02-28T04:43:20;91948.75;;;-3.40;100.00
7660;BME280;3872;47.902;8.162;2023-02-28T04:45:46;91941.28;;;-3.42;100.00
7660;BME280;3872;47.902;8.162;2023-02-28T04:48:13;91940.66;;;-3.37;100.00
7660;BME280;3872;47.902;8.162;2023-02-28T04:50:39;91941.19;;;-3.60;100.00
7660;BME280;3872;47.902;8.162;2023-02-28T04:53:06;91943.81;;;-3.35;100.00
7660;BME280;3872;47.902;8.162;2023-02-28T04:55:32;91943.56;;;-3.34;100.00
7660;BME280;3872;47.902;8.162;2023-02-28T04:58:00;91952.50;;;-3.36;100.00
7660;BME280;3872;47.902;8.162;2023-02-28T05:00:27;91954.91;;;-3.10;100.00
7660;BME280;3872;47.902;8.162;2023-02-28T05:02:53;91951.88;;;-3.32;100.00
7660;BME280;3872;47.902;8.162;2023-02-28T05:05:20;91956.81;;;-3.30;100.00
7660;BME280;3872;47.902;8.162;2023-02-28T05:07:47;91963.31;;;-3.21;100.00
7660;BME280;3872;47.902;8.162;2023-02-28T05:10:13;91976.81;;;-3.01;100.00
7660;BME280;3872;47.902;8.162;2023-02-28T05:12:40;91977.78;;;-3.58;100.00
7660;BME280;3872;47.902;8.162;2023-02-28T05:15:12;91975.81;;;-3.00;100.00
7660;BME280;3872;47.902;8.162;2023-02-28T05:17:39;91976.81;;;-3.32;100.00
7660;BME280;3872;47.902;8.162;2023-02-28T05:20:07;91983.34;;;-3.68;100.00
7660;BME280;3872;47.902;8.162;2023-02-28T05:22:36;91978.19;;;-3.30;100.00
7660;BME280;3872;47.902;8.162;2023-02-28T05:25:03;91994.88;;;-3.39;100.00
7660;BME280;3872;47.902;8.162;2023-02-28T05:27:30;91980.56;;;-3.28;100.00
7660;BME280;3872;47.902;8.162;2023-02-28T05:29:56;91987.53;;;-3.35;100.00
7660;BME280;3872;47.902;8.162;2023-02-28T05:32:25;91990.75;;;-3.46;100.00
7660;BME280;3872;47.902;8.162;2023-02-28T05:34:51;91985.94;;;-3.05;100.00
7660;BME280;3872;47.902;8.162;2023-02-28T05:37:18;91982.91;;;-3.27;100.00
7660;BME280;3872;47.902;8.162;2023-02-28T05:39:44;91984.50;;;-3.26;100.00
7660;BME280;3872;47.902;8.162;2023-02-28T05:42:11;91992.31;;;-3.39;100.00
7660;BME280;3872;47.902;8.162;2023-02-28T05:44:37;91995.63;;;-3.63;100.00
7660;BME280;3872;47.902;8.162;2023-02-28T05:47:04;91987.78;;;-3.12;100.00
7660;BME280;3872;47.902;8.162;2023-02-28T05:49:32;91994.94;;;-3.14;100.00
7660;BME280;3872;47.902;8.162;2023-02-28T05:51:58;91992.25;;;-3.32;100.00
7660;BME280;3872;47.902;8.162;2023-02-28T05:54:25;91999.91;;;-3.50;100.00
7660;BME280;3872;47.902;8.162;2023-02-28T05:56:51;91995.03;;;-3.34;100.00
7660;BME280;3872;47.902;8.162;2023-02-28T05:59:18;91998.63;;;-3.73;100.00
7660;BME280;3872;47.902;8.162;2023-02-28T06:01:45;92000.03;;;-3.83;100.00
7660;BME280;3872;47.902;8.162;2023-02-28T06:04:16;91997.38;;;-3.26;100.00
7660;BME280;3872;47.902;8.162;2023-02-28T06:06:45;91998.34;;;-3.58;100.00
7660;BME280;3872;47.902;8.162;2023-02-28T06:09:12;92002.47;;;-3.50;100.00
7660;BME280;3872;47.902;8.162;2023-02-28T06:11:39;92004.00;;;-3.43;100.00
7660;BME280;3872;47.902;8.162;2023-02-28T06:14:06;92002.91;;;-3.60;100.00
7660;BME280;3872;47.902;8.162;2023-02-28T06:16:34;92002.63;;;-3.45;100.00
7660;BME280;3872;47.902;8.162;2023-02-28T06:19:02;92013.16;;;-3.53;100.00
7660;BME280;3872;47.902;8.162;2023-02-28T06:21:29;92014.19;;;-3.61;100.00
7660;BME280;3872;47.902;8.162;2023-02-28T06:23:58;92015.56;;;-3.59;100.00
7660;BME280;3872;47.902;8.162;2023-02-28T06:26:25;92009.44;;;-3.26;100.00
7660;BME280;3872;47.902;8.162;2023-02-28T06:28:51;92004.41;;;-3.46;100.00
7660;BME280;3872;47.902;8.162;2023-02-28T06:31:18;92010.47;;;-3.34;100.00
7660;BME280;3872;47.902;8.162;2023-02-28T06:33:46;92018.47;;;-3.42;100.00
7660;BME280;3872;47.902;8.162;2023-02-28T06:36:13;92012.75;;;-3.50;100.00
7660;BME280;3872;47.902;8.162;2023-02-28T06:38:41;92020.03;;;-3.09;100.00
7660;BME280;3872;47.902;8.162;2023-02-28T06:41:10;92021.13;;;-3.24;100.00
7660;BME280;3872;47.902;8.162;2023-02-28T06:43:39;92022.03;;;-3.43;100.00
7660;BME280;3872;47.902;8.162;2023-02-28T06:46:08;92026.97;;;-3.41;100.00
7660;BME280;3872;47.902;8.162;2023-02-28T06:48:34;92027.06;;;-3.68;100.00
7660;BME280;3872;47.902;8.162;2023-02-28T06:51:03;92027.66;;;-3.21;100.00
7660;BME280;3872;47.902;8.162;2023-02-28T06:53:30;92027.69;;;-3.28;100.00
7660;BME280;3872;47.902;8.162;2023-02-28T06:55:56;92035.22;;;-3.33;100.00
7660;BME280;3872;47.902;8.162;2023-02-28T06:58:24;92031.03;;;-3.27;100.00
7660;BME280;3872;47.902;8.162;2023-02-28T07:00:52;92039.50;;;-2.89;100.00
7660;BME280;3872;47.902;8.162;2023-02-28T07:03:19;92039.44;;;-3.45;100.00
7660;BME280;3872;47.902;8.162;2023-02-28T07:05:45;92033.66;;;-3.40;100.00
7660;BME280;3872;47.902;8.162;2023-02-28T07:08:12;92035.59;;;-2.98;100.00
7660;BME280;3872;47.902;8.162;2023-02-28T07:10:39;92042.56;;;-3.05;100.00
7660;BME280;3872;47.902;8.162;2023-02-28T07:13:07;92034.78;;;-3.23;100.00
7660;BME280;3872;47.902;8.162;2023-02-28T07:15:35;92044.88;;;-3.22;100.00
7660;BME280;3872;47.902;8.162;2023-02-28T07:18:02;92055.59;;;-2.93;100.00
7660;BME280;3872;47.902;8.162;2023-02-28T07:20:29;92058.75;;;-2.98;100.00
7660;BME280;3872;47.902;8.162;2023-02-28T07:22:56;92053.81;;;-2.68;100.00
7660;BME280;3872;47.902;8.162;2023-02-28T07:25:23;92058.06;;;-3.11;100.00
7660;BME280;3872;47.902;8.162;2023-02-28T07:27:49;92055.22;;;-3.35;100.00
7660;BME280;3872;47.902;8.162;2023-02-28T07:30:16;92056.00;;;-3.28;100.00
7660;BME280;3872;47.902;8.162;2023-02-28T07:32:45;92054.34;;;-3.60;100.00
7660;BME280;3872;47.902;8.162;2023-02-28T07:35:12;92052.47;;;-3.02;100.00
7660;BME280;3872;47.902;8.162;2023-02-28T07:37:40;92047.91;;;-3.00;100.00
7660;BME280;3872;47.902;8.162;2023-02-28T07:40:09;92043.53;;;-2.25;100.00
7660;BME280;3872;47.902;8.162;2023-02-28T07:42:38;92048.34;;;-2.78;100.00
7660;BME280;3872;47.902;8.162;2023-02-28T07:45:06;92058.28;;;-3.20;100.00
7660;BME280;3872;47.902;8.162;2023-02-28T07:47:33;92055.13;;;-3.15;100.00
7660;BME280;3872;47.902;8.162;2023-02-28T07:50:00;92062.16;;;-3.04;100.00
7660;BME280;3872;47.902;8.162;2023-02-28T07:52:27;92061.06;;;-2.58;100.00
7660;BME280;3872;47.902;8.162;2023-02-28T07:54:53;92061.53;;;-2.93;100.00
7660;BME280;3872;47.902;8.162;2023-02-28T07:57:20;92053.84;;;-2.25;100.00
7660;BME280;3872;47.902;8.162;2023-02-28T07:59:46;92060.66;;;-2.30;100.00
7660;BME280;3872;47.902;8.162;2023-02-28T08:02:13;92053.75;;;-2.61;100.00
7660;BME280;3872;47.902;8.162;2023-02-28T08:04:40;92058.22;;;-3.38;100.00
7660;BME280;3872;47.902;8.162;2023-02-28T08:07:08;92057.75;;;-2.65;100.00
7660;BME280;3872;47.902;8.162;2023-02-28T08:09:38;92055.56;;;-2.19;100.00
7660;BME280;3872;47.902;8.162;2023-02-28T08:12:05;92062.13;;;-2.66;100.00
7660;BME280;3872;47.902;8.162;2023-02-28T08:14:33;92059.97;;;-2.44;100.00
7660;BME280;3872;47.902;8.162;2023-02-28T08:16:59;92061.56;;;-2.43;100.00
7660;BME280;3872;47.902;8.162;2023-02-28T08:19:26;92064.22;;;-2.31;100.00
7660;BME280;3872;47.902;8.162;2023-02-28T08:21:53;92063.94;;;-2.42;100.00
7660;BME280;3872;47.902;8.162;2023-02-28T08:24:21;92061.31;;;-2.17;100.00
7660;BME280;3872;47.902;8.162;2023-02-28T08:26:48;92064.38;;;-2.51;100.00
7660;BME280;3872;47.902;8.162;2023-02-28T08:29:14;92065.59;;;-2.29;100.00
7660;BME280;3872;47.902;8.162;2023-02-28T08:31:41;92071.75;;;-2.30;100.00
7660;BME280;3872;47.902;8.162;2023-02-28T08:34:09;92079.00;;;-2.45;100.00
7660;BME280;3872;47.902;8.162;2023-02-28T08:36:36;92078.03;;;-2.26;100.00
7660;BME280;3872;47.902;8.162;2023-02-28T08:39:04;92082.91;;;-1.93;100.00
7660;BME280;3872;47.902;8.162;2023-02-28T08:41:33;92086.47;;;-2.37;100.00
7660;BME280;3872;47.902;8.162;2023-02-28T08:43:59;92085.31;;;-1.98;100.00
7660;BME280;3872;47.902;8.162;2023-02-28T08:46:26;92094.09;;;-2.24;100.00
7660;BME280;3872;47.902;8.162;2023-02-28T08:48:55;92088.81;;;-2.11;100.00
7660;BME280;3872;47.902;8.162;2023-02-28T08:51:24;92097.72;;;-2.31;100.00
7660;BME280;3872;47.902;8.162;2023-02-28T08:53:52;92094.41;;;-2.14;100.00
7660;BME280;3872;47.902;8.162;2023-02-28T08:56:20;92098.41;;;-2.18;100.00
7660;BME280;3872;47.902;8.162;2023-02-28T08:58:49;92098.66;;;-2.26;100.00
7660;BME280;3872;47.902;8.162;2023-02-28T09:01:18;92107.59;;;-2.78;100.00
7660;BME280;3872;47.902;8.162;2023-02-28T09:03:46;92096.56;;;-2.11;100.00
7660;BME280;3872;47.902;8.162;2023-02-28T09:06:14;92091.00;;;-2.08;100.00
7660;BME280;3872;47.902;8.162;2023-02-28T09:08:41;92091.47;;;-2.42;100.00
7660;BME280;3872;47.902;8.162;2023-02-28T09:11:09;92097.16;;;-2.09;100.00
7660;BME280;3872;47.902;8.162;2023-02-28T09:13:36;92098.66;;;-2.26;100.00
7660;BME280;3872;47.902;8.162;2023-02-28T09:16:06;92101.44;;;-1.78;100.00
7660;BME280;3872;47.902;8.162;2023-02-28T09:18:33;92107.00;;;-2.06;100.00
7660;BME280;3872;47.902;8.162;2023-02-28T09:21:03;92108.41;;;-2.03;100.00
7660;BME280;3872;47.902;8.162;2023-02-28T09:23:30;92108.25;;;-1.90;100.00
7660;BME280;3872;47.902;8.162;2023-02-28T09:25:56;92111.78;;;-2.27;100.00
7660;BME280;3872;47.902;8.162;2023-02-28T09:28:23;92108.94;;;-2.44;100.00
7660;BME280;3872;47.902;8.162;2023-02-28T09:30:51;92109.34;;;-2.47;100.00
7660;BME280;3872;47.902;8.162;2023-02-28T09:33:22;92105.13;;;-1.74;100.00
7660;BME280;3872;47.902;8.162;2023-02-28T09:35:50;92114.31;;;-2.21;100.00
7660;BME280;3872;47.902;8.162;2023-02-28T09:38:17;92103.50;;;-1.50;100.00
7660;BME280;3872;47.902;8.162;2023-02-28T09:40:48;92101.75;;;-1.20;100.00
7660;BME280;3872;47.902;8.162;2023-02-28T09:43:16;92114.19;;;-0.80;100.00
7660;BME280;3872;47.902;8.162;2023-02-28T09:45:50;92108.22;;;-0.81;100.00
7660;BME280;3872;47.902;8.162;2023-02-28T09:48:23;92103.91;;;-1.16;100.00
7660;BME280;3872;47.902;8.162;2023-02-28T09:50:55;92104.56;;;-1.39;100.00
7660;BME280;3872;47.902;8.162;2023-02-28T09:53:26;92111.50;;;-1.94;100.00
7660;BME280;3872;47.902;8.162;2023-02-28T09:56:01;92112.56;;;-1.11;100.00
7660;BME280;3872;47.902;8.162;2023-02-28T09:58:33;92109.03;;;-1.28;100.00
7660;BME280;3872;47.902;8.162;2023-02-28T10:01:07;92112.16;;;-0.78;100.00
7660;BME280;3872;47.902;8.162;2023-02-28T10:03:39;92114.09;;;-1.76;100.00
7660;BME280;3872;47.902;8.162;2023-02-28T10:06:11;92125.63;;;-1.79;100.00
7660;BME280;3872;47.902;8.162;2023-02-28T10:08:43;92123.34;;;-1.69;100.00
7660;BME280;3872;47.902;8.162;2023-02-28T10:11:16;92115.66;;;-1.02;100.00
7660;BME280;3872;47.902;8.162;2023-02-28T10:13:50;92120.31;;;-1.11;100.00
7660;BME280;3872;47.902;8.162;2023-02-28T10:16:22;92119.38;;;-1.89;100.00
7660;BME280;3872;47.902;8.162;2023-02-28T10:18:55;92126.56;;;-2.16;100.00
7660;BME280;3872;47.902;8.162;2023-02-28T10:21:26;92119.75;;;-1.68;100.00
7660;BME280;3872;47.902;8.162;2023-02-28T10:24:02;92118.56;;;-1.47;100.00
7660;BME280;3872;47.902;8.162;2023-02-28T10:26:30;92124.31;;;-0.97;100.00
7660;BME280;3872;47.902;8.162;2023-02-28T10:28:57;92128.88;;;-1.29;100.00
7660;BME280;3872;47.902;8.162;2023-02-28T10:31:24;92134.88;;;-1.35;100.00
7660;BME280;3872;47.902;8.162;2023-02-28T10:33:52;92138.28;;;-1.95;100.00
7660;BME280;3872;47.902;8.162;2023-02-28T10:36:20;92142.78;;;-1.48;100.00
7660;BME280;3872;47.902;8.162;2023-02-28T10:38:47;92140.63;;;-1.33;100.00
7660;BME280;3872;47.902;8.162;2023-02-28T10:41:17;92144.41;;;-0.81;100.00
7660;BME280;3872;47.902;8.162;2023-02-28T10:43:52;92148.09;;;-0.47;100.00
7660;BME280;3872;47.902;8.162;2023-02-28T10:46:19;92139.47;;;-1.00;100.00
7660;BME280;3872;47.902;8.162;2023-02-28T10:49:01;92143.34;;;-1.46;100.00
7660;BME280;3872;47.902;8.162;2023-02-28T10:51:35;92134.69;;;-1.15;100.00
7660;BME280;3872;47.902;8.162;2023-02-28T10:54:03;92143.66;;;-1.17;100.00
7660;BME280;3872;47.902;8.162;2023-02-28T10:56:30;92144.22;;;-1.34;100.00
7660;BME280;3872;47.902;8.162;2023-02-28T10:58:59;92146.88;;;-1.40;100.00
7660;BME280;3872;47.902;8.162;2023-02-28T11:01:36;92147.19;;;-0.82;100.00
7660;BME280;3872;47.902;8.162;2023-02-28T11:04:16;92145.19;;;-0.98;100.00
7660;BME280;3872;47.902;8.162;2023-02-28T11:06:43;92150.66;;;-1.06;100.00
7660;BME280;3872;47.902;8.162;2023-02-28T11:09:19;92145.34;;;-0.93;100.00
7660;BME280;3872;47.902;8.162;2023-02-28T11:11:49;92152.41;;;-0.70;100.00
7660;BME280;3872;47.902;8.162;2023-02-28T11:14:20;92151.16;;;-0.80;100.00
7660;BME280;3872;47.902;8.162;2023-02-28T11:16:48;92153.66;;;-0.91;100.00
7660;BME280;3872;47.902;8.162;2023-02-28T11:19:19;92154.41;;;-0.43;100.00
7660;BME280;3872;47.902;8.162;2023-02-28T11:21:53;92163.50;;;0.02;100.00
7660;BME280;3872;47.902;8.162;2023-02-28T11:24:23;92155.34;;;0.28;100.00
7660;BME280;3872;47.902;8.162;2023-02-28T11:26:51;92159.91;;;-0.81;100.00
7660;BME280;3872;47.902;8.162;2023-02-28T11:29:20;92163.13;;;-0.25;100.00
7660;BME280;3872;47.902;8.162;2023-02-28T11:35:01;92164.56;;;0.35;100.00
7660;BME280;3872;47.902;8.162;2023-02-28T11:37:28;92155.41;;;-0.02;100.00
7660;BME280;3872;47.902;8.162;2023-02-28T11:39:56;92157.91;;;0.05;100.00
7660;BME280;3872;47.902;8.162;2023-02-28T11:42:35;92151.94;;;-0.08;100.00
7660;BME280;3872;47.902;8.162;2023-02-28T11:45:18;92154.19;;;0.12;100.00
7660;BME280;3872;47.902;8.162;2023-02-28T11:47:55;92144.31;;;0.21;100.00
7660;BME280;3872;47.902;8.162;2023-02-28T11:50:42;92138.38;;;-0.33;100.00
7660;BME280;3872;47.902;8.162;2023-02-28T11:53:19;92137.34;;;-0.32;100.00
7660;BME280;3872;47.902;8.162;2023-02-28T11:55:49;92142.16;;;0.29;100.00
7660;BME280;3872;47.902;8.162;2023-02-28T11:58:28;92131.88;;;-0.12;100.00
7660;BME280;3872;47.902;8.162;2023-02-28T12:01:18;92131.31;;;-0.56;100.00
7660;BME280;3872;47.902;8.162;2023-02-28T12:03:57;92131.88;;;-0.12;100.00
7660;BME280;3872;47.902;8.162;2023-02-28T12:06:33;92137.66;;;-0.52;100.00
7660;BME280;3872;47.902;8.162;2023-02-28T12:09:18;92130.78;;;0.19;100.00
7660;BME280;3872;47.902;8.162;2023-02-28T12:11:51;92144.41;;;0.37;100.00
7660;BME280;3872;47.902;8.162;2023-02-28T12:15:02;92133.28;;;0.49;100.00
7660;BME280;3872;47.902;8.162;2023-02-28T12:17:43;92143.38;;;0.04;100.00
7660;BME280;3872;47.902;8.162;2023-02-28T12:20:18;92144.06;;;0.69;100.00
7660;BME280;3872;47.902;8.162;2023-02-28T12:22:59;92141.13;;;0.54;100.00
7660;BME280;3872;47.902;8.162;2023-02-28T12:25:39;92146.75;;;0.04;100.00
7660;BME280;3872;47.902;8.162;2023-02-28T12:28:13;92149.19;;;-0.13;100.00
7660;BME280;3872;47.902;8.162;2023-02-28T12:30:46;92134.84;;;0.38;100.00
7660;BME280;3872;47.902;8.162;2023-02-28T12:33:17;92139.84;;;-0.14;100.00
7660;BME280;3872;47.902;8.162;2023-02-28T12:35:51;92146.75;;;0.04;100.00
7660;BME280;3872;47.902;8.162;2023-02-28T12:38:22;92145.97;;;0.85;100.00
7660;BME280;3872;47.902;8.162;2023-02-28T12:40:53;92151.16;;;0.50;100.00
7660;BME280;3872;47.902;8.162;2023-02-28T12:43:22;92151.53;;;-0.94;100.00
7660;BME280;3872;47.902;8.162;2023-02-28T12:45:53;92152.16;;;0.84;100.00
7660;BME280;3872;47.902;8.162;2023-02-28T12:48:25;92145.41;;;0.60;100.00
7660;BME280;3872;47.902;8.162;2023-02-28T12:50:53;92147.09;;;0.66;100.00
7660;BME280;3872;47.902;8.162;2023-02-28T12:53:27;92145.66;;;1.10;100.00
7660;BME280;3872;47.902;8.162;2023-02-28T12:56:07;92148.69;;;-0.33;100.00
7660;BME280;3872;47.902;8.162;2023-02-28T12:58:38;92149.28;;;-0.31;100.00
7660;BME280;3872;47.902;8.162;2023-02-28T13:01:36;92138.78;;;-0.48;100.00
7660;BME280;3872;47.902;8.162;2023-02-28T13:10:05;92141.38;;;0.52;100.00
7660;BME280;3872;47.902;8.162;2023-02-28T13:12:33;92134.72;;;0.10;100.00
7660;BME280;3872;47.902;8.162;2023-02-28T13:15:06;92143.00;;;-0.23;100.00
7660;BME280;3872;47.902;8.162;2023-02-28T13:17:38;92139.81;;;-0.37;100.00
7660;BME280;3872;47.902;8.162;2023-02-28T13:20:15;92141.41;;;-0.24;100.00
7660;BME280;3872;47.902;8.162;2023-02-28T13:22:43;92132.88;;;-0.13;100.00
7660;BME280;3872;47.902;8.162;2023-02-28T13:31:15;92144.84;;;0.46;100.00
7660;BME280;3872;47.902;8.162;2023-02-28T13:34:05;92140.78;;;0.15;100.00
7660;BME280;3872;47.902;8.162;2023-02-28T13:36:38;92135.75;;;-0.45;100.00
7660;BME280;3872;47.902;8.162;2023-02-28T13:39:47;92130.09;;;0.23;100.00
7660;BME280;3872;47.902;8.162;2023-02-28T13:42:32;92134.59;;;0.16;100.00
7660;BME280;3872;47.902;8.162;2023-02-28T13:45:25;92135.84;;;-0.10;100.00